Danville, Kansas
Current Conditions -  °F | °C
As of 6:24 AM on Thursday 29 Jan 2015 (Local Time) from KICT Reporting Station
Broken Clouds Broken Clouds  
Wind Chill: 33°   Ceiling: 2600
Heat Index: 42°   Visibility: 10mi
Dew Point: 30°   Wind: 20mph
Humidity: 62%   Direction: 350°N
Pressure: 30.24"   Gusts: 35mph
Location:  37.29°N, 97.89°W
Report Text: KICT 291224Z 35017G30KT 10SM BKN026 BKN250 06/M01 A3024 RMK AO2 PK WND 35033/1158 T00561011
Loading
Personal Weather Stations






























Interactive Weather Map New forecast layout! Learn more

10-Day Weather Forecast

Advertisements
Track Severe Weather on mobile